Caicara, Brazil
Current Conditions -  °F | °C
As of 11:00 AM on Friday 24 Oct 2014 (Local Time) from SBNT Reporting Station
Broken Clouds Broken Clouds  
Wind Chill: 84°   Ceiling: 2700
Heat Index: 86°   Visibility: 6mi
Dew Point: 66°   Wind: 20mph
Humidity: 55%   Direction: 120°ESE
Pressure: 29.94"   Gusts: NA
Location:  6.62°S, 35.47°W
Report Text: SBNT 241400Z 12017KT 9999 BKN027 29/19 Q1014
Loading
Personal Weather Stations






























Interactive Weather Map
Tropical Storm Tracking
New forecast layout! Learn more

10-Day Weather Forecast

Advertisements
Track Severe Weather on mobile